Time;durP1;ratioP1;P1;durP2;ratioP2;P2;SDS_P1;SDS_P2;PMS_P1;PMS_P2;Temp;Humidity;BMP_temperature;BMP_pressure;BME280_temperature;BME280_humidity;BME280_pressure;Samples;Min_cycle;Max_cycle;Signal;HPM_P1;HPM_P2
2022/08/22 00:01:29;;;;;;;6.00;2.33;;;19.50;67.40;;;;;;5033329;28;20069;-72
2022/08/22 00:04:06;;;;;;;4.78;2.25;;;19.40;67.30;;;;;;5015268;28;20056;-73
2022/08/22 00:06:41;;;;;;;7.40;2.30;;;19.40;67.10;;;;;;5015144;28;20136;-73
2022/08/22 00:09:28;;;;;;;6.25;2.40;;;19.40;67.10;;;;;;5032766;28;20345;-72
2022/08/22 00:12:03;;;;;;;6.65;2.28;;;19.30;67.10;;;;;;5015087;28;20046;-72
2022/08/22 00:14:36;;;;;;;8.32;2.22;;;19.30;67.50;;;;;;5032820;28;20124;-73
2022/08/22 00:17:23;;;;;;;6.22;2.00;;;19.30;67.80;;;;;;5032787;28;20081;-72
2022/08/22 00:19:55;;;;;;;7.57;2.10;;;19.30;67.90;;;;;;5014950;28;20145;-72
2022/08/22 00:22:31;;;;;;;5.75;2.17;;;19.30;68.00;;;;;;5015051;28;20744;-72
2022/08/22 00:25:25;;;;;;;5.38;1.83;;;19.20;68.20;;;;;;5032430;28;20108;-73
2022/08/22 00:27:57;;;;;;;4.53;1.98;;;19.20;68.20;;;;;;5014638;28;20056;-72
2022/08/22 00:30:26;;;;;;;5.85;2.00;;;19.20;68.60;;;;;;5014429;28;20152;-72
2022/08/22 00:32:58;;;;;;;6.17;2.23;;;19.20;68.80;;;;;;5013305;28;20046;-72
2022/08/22 00:35:32;;;;;;;5.50;2.30;;;19.10;69.00;;;;;;5014733;28;20309;-72
2022/08/22 00:38:04;;;;;;;4.80;2.40;;;19.10;68.90;;;;;;5032683;28;20127;-73
2022/08/22 00:40:48;;;;;;;4.82;2.28;;;19.10;68.70;;;;;;5032431;28;20048;-73
2022/08/22 00:43:58;;;;;;;4.28;2.33;;;19.10;68.40;;;;;;5014623;28;20054;-72
2022/08/22 00:46:51;;;;;;;6.80;2.33;;;19.00;68.00;;;;;;4948678;28;20045;-73
2022/08/22 00:49:34;;;;;;;5.22;2.20;;;19.00;68.40;;;;;;4974990;28;20259;-72
2022/08/22 00:52:58;;;;;;;5.82;2.60;;;19.00;68.40;;;;;;4992805;28;20043;-72
2022/08/22 00:55:40;;;;;;;5.80;2.70;;;19.00;67.70;;;;;;4878187;29;20511;-72
2022/08/22 00:58:22;;;;;;;7.35;3.10;;;19.00;68.00;;;;;;4878052;29;20132;-72
2022/08/22 01:00:54;;;;;;;7.40;3.30;;;18.90;68.20;;;;;;4956869;28;20054;-72
2022/08/22 01:04:09;;;;;;;5.70;2.85;;;18.90;68.40;;;;;;4992848;28;20282;-72
2022/08/22 01:06:44;;;;;;;6.63;2.78;;;18.90;67.40;;;;;;4956785;28;20047;-72
2022/08/22 01:09:22;;;;;;;6.15;2.60;;;18.90;68.00;;;;;;4974544;28;20047;-72
2022/08/22 01:12:09;;;;;;;5.72;2.30;;;18.80;68.00;;;;;;4992654;28;20055;-72
2022/08/22 01:14:43;;;;;;;6.67;2.27;;;18.80;67.60;;;;;;4992401;28;20610;-72
2022/08/22 01:17:48;;;;;;;6.97;2.55;;;18.80;68.20;;;;;;4992556;28;21115;-73
2022/08/22 01:20:55;;;;;;;6.88;2.83;;;18.80;67.20;;;;;;4987787;28;20065;-72
2022/08/22 01:23:55;;;;;;;7.88;2.88;;;18.80;67.70;;;;;;4992173;28;20051;-72
2022/08/22 01:26:57;;;;;;;7.47;2.88;;;18.70;68.00;;;;;;4992439;28;20057;-72
2022/08/22 01:30:05;;;;;;;7.30;2.80;;;18.70;68.30;;;;;;4926206;28;20827;-72
2022/08/22 01:33:12;;;;;;;7.70;3.15;;;18.70;68.50;;;;;;4974547;28;20843;-72
2022/08/22 01:36:16;;;;;;;7.32;3.22;;;18.70;68.70;;;;;;4945548;28;20058;-72
2022/08/22 01:39:03;;;;;;;8.10;3.63;;;18.60;68.40;;;;;;4992427;28;20057;-72
2022/08/22 01:42:07;;;;;;;7.15;3.15;;;18.60;68.50;;;;;;4952499;28;20062;-72
2022/08/22 01:45:01;;;;;;;7.23;3.30;;;18.60;68.00;;;;;;4983746;28;20061;-72
2022/08/22 01:47:34;;;;;;;7.53;3.00;;;18.60;68.70;;;;;;5011820;28;20266;-72
2022/08/22 01:50:10;;;;;;;7.47;3.03;;;18.50;69.30;;;;;;4993819;28;20057;-72
2022/08/22 01:52:43;;;;;;;6.93;3.25;;;18.50;69.40;;;;;;5011582;28;20061;-72
2022/08/22 01:55:20;;;;;;;7.75;2.72;;;18.50;69.50;;;;;;5011532;28;20432;-72
2022/08/22 01:57:54;;;;;;;7.60;2.83;;;18.50;69.50;;;;;;4994058;28;20050;-72
2022/08/22 02:00:22;;;;;;;7.25;3.08;;;18.50;69.40;;;;;;4977347;28;20326;-72
2022/08/22 02:03:02;;;;;;;8.77;3.50;;;18.40;69.70;;;;;;4993561;28;20868;-72
2022/08/22 02:05:36;;;;;;;6.85;2.90;;;18.50;69.70;;;;;;4993727;28;20607;-72
2022/08/22 02:08:16;;;;;;;7.75;3.15;;;18.40;70.00;;;;;;5010985;28;20059;-72
2022/08/22 02:10:56;;;;;;;8.00;3.37;;;18.40;70.30;;;;;;4993443;28;20048;-72
2022/08/22 02:13:34;;;;;;;7.95;3.70;;;18.40;70.50;;;;;;5011261;28;20348;-73
2022/08/22 02:16:09;;;;;;;8.25;3.58;;;18.30;70.70;;;;;;4994207;28;20140;-72
2022/08/22 02:18:54;;;;;;;7.93;3.45;;;18.30;71.10;;;;;;4993266;28;20051;-72
2022/08/22 02:21:26;;;;;;;7.47;3.45;;;18.20;71.00;;;;;;5011515;28;20061;-72
2022/08/22 02:23:57;;;;;;;6.63;3.33;;;18.10;71.20;;;;;;4993487;28;20070;-72
2022/08/22 02:26:28;;;;;;;8.30;3.45;;;18.10;71.20;;;;;;4993908;28;20396;-72
2022/08/22 02:29:00;;;;;;;6.00;3.28;;;18.10;71.20;;;;;;4993576;28;20129;-72
2022/08/22 02:31:40;;;;;;;8.82;3.22;;;18.10;71.30;;;;;;4992302;28;20050;-72
2022/08/22 02:34:35;;;;;;;8.18;3.30;;;18.20;71.20;;;;;;4992741;28;20132;-72
2022/08/22 02:37:10;;;;;;;7.67;3.17;;;18.10;70.60;;;;;;4993685;28;20039;-72
2022/08/22 02:39:45;;;;;;;8.88;3.20;;;18.10;71.20;;;;;;5010664;28;20254;-73
2022/08/22 02:42:20;;;;;;;6.88;3.40;;;18.10;71.30;;;;;;5010856;28;20054;-72
2022/08/22 02:44:57;;;;;;;7.28;3.25;;;18.10;71.40;;;;;;5003468;28;20048;-72
2022/08/22 02:47:32;;;;;;;8.70;3.60;;;18.10;71.70;;;;;;5012441;28;20419;-72
2022/08/22 02:50:06;;;;;;;8.33;3.30;;;18.10;71.90;;;;;;5030083;28;20058;-72
2022/08/22 02:52:41;;;;;;;7.00;3.25;;;18.00;71.70;;;;;;5012479;28;20273;-72
2022/08/22 02:55:16;;;;;;;8.95;3.67;;;18.00;71.80;;;;;;5012574;28;20590;-72
2022/08/22 02:57:51;;;;;;;6.72;3.20;;;18.00;71.80;;;;;;5033740;28;20053;-72
2022/08/22 03:00:26;;;;;;;9.68;3.40;;;18.00;71.70;;;;;;5033839;28;20061;-72
2022/08/22 03:03:03;;;;;;;7.97;3.33;;;18.00;71.70;;;;;;5016265;28;20050;-72
2022/08/22 03:05:46;;;;;;;7.38;3.40;;;18.00;71.60;;;;;;5016237;28;21269;-72
2022/08/22 03:08:21;;;;;;;9.30;3.25;;;18.00;71.70;;;;;;5033598;28;20090;-73
2022/08/22 03:10:59;;;;;;;5.50;2.88;;;18.00;71.90;;;;;;5033767;28;20467;-72
2022/08/22 03:13:37;;;;;;;7.28;2.75;;;18.00;71.60;;;;;;5016033;28;20157;-72
2022/08/22 03:16:10;;;;;;;7.80;2.70;;;18.00;71.60;;;;;;5034238;28;20253;-73
2022/08/22 03:18:48;;;;;;;8.23;3.10;;;18.00;71.70;;;;;;5034060;28;20285;-73
2022/08/22 03:21:24;;;;;;;7.38;2.78;;;18.00;71.60;;;;;;5033567;28;20188;-73
2022/08/22 03:24:19;;;;;;;6.13;2.70;;;18.00;71.60;;;;;;5033746;28;20057;-73
2022/08/22 03:26:52;;;;;;;6.63;2.78;;;18.00;71.60;;;;;;5033810;28;20061;-72
2022/08/22 03:29:23;;;;;;;6.53;3.00;;;17.90;72.00;;;;;;5015818;28;20056;-73
2022/08/22 03:32:11;;;;;;;9.05;2.97;;;17.90;72.00;;;;;;5015074;28;20723;-73
2022/08/22 03:34:53;;;;;;;7.53;3.03;;;17.90;71.80;;;;;;5015682;28;20081;-73
2022/08/22 03:37:26;;;;;;;6.80;3.00;;;17.90;72.30;;;;;;5015587;28;20078;-72
2022/08/22 03:39:59;;;;;;;6.63;3.22;;;17.80;72.40;;;;;;5015851;28;20494;-72
2022/08/22 03:43:10;;;;;;;7.60;3.40;;;17.80;72.50;;;;;;5033748;28;20046;-72
2022/08/22 03:46:06;;;;;;;5.93;3.10;;;17.80;72.10;;;;;;4994127;28;20287;-72
2022/08/22 03:49:04;;;;;;;7.88;3.00;;;17.80;72.30;;;;;;4992464;28;20069;-72
2022/08/22 03:51:58;;;;;;;8.13;3.00;;;17.80;72.30;;;;;;4992659;28;20051;-73
2022/08/22 03:54:58;;;;;;;7.03;2.92;;;17.80;72.60;;;;;;4992382;28;20054;-72
2022/08/22 03:57:50;;;;;;;8.57;2.90;;;17.70;72.60;;;;;;4991888;28;20045;-72
2022/08/22 04:00:36;;;;;;;6.90;3.40;;;17.70;72.50;;;;;;4993444;28;20662;-72
2022/08/22 04:03:26;;;;;;;8.57;3.42;;;17.60;72.80;;;;;;4992076;28;20061;-72
2022/08/22 04:06:15;;;;;;;7.40;3.60;;;17.70;72.50;;;;;;4993288;28;20073;-73
2022/08/22 04:09:20;;;;;;;7.68;3.65;;;17.60;72.60;;;;;;4991020;28;20051;-73
2022/08/22 04:12:21;;;;;;;6.83;3.43;;;17.60;72.20;;;;;;4975853;28;20608;-73
2022/08/22 04:15:24;;;;;;;5.32;3.13;;;17.70;72.30;;;;;;4993625;28;20283;-72
2022/08/22 04:18:34;;;;;;;6.82;3.78;;;17.60;72.50;;;;;;4993226;28;20055;-72
2022/08/22 04:21:39;;;;;;;8.80;4.15;;;17.60;72.50;;;;;;4991187;28;20601;-72
2022/08/22 04:24:37;;;;;;;9.18;3.83;;;17.50;72.60;;;;;;4979639;28;20057;-72
2022/08/22 04:27:12;;;;;;;7.57;3.73;;;17.50;72.70;;;;;;4965006;28;20047;-72
2022/08/22 04:29:49;;;;;;;8.05;3.63;;;17.50;73.10;;;;;;4992855;28;20242;-73
2022/08/22 04:32:25;;;;;;;7.50;3.90;;;17.50;73.00;;;;;;4992631;28;20486;-72
2022/08/22 04:34:56;;;;;;;9.85;4.07;;;17.50;73.10;;;;;;4992861;28;20754;-72
2022/08/22 04:37:30;;;;;;;12.40;3.90;;;17.50;73.20;;;;;;4991545;28;20047;-73
2022/08/22 04:40:02;;;;;;;7.90;3.50;;;17.50;73.20;;;;;;4992819;28;20089;-72
2022/08/22 04:42:35;;;;;;;9.35;4.40;;;17.50;73.20;;;;;;4991714;28;20263;-72
2022/08/22 04:45:09;;;;;;;9.68;3.97;;;17.50;73.10;;;;;;5007749;28;20061;-72
2022/08/22 04:47:41;;;;;;;6.60;3.83;;;17.50;73.20;;;;;;5032621;28;20060;-72
2022/08/22 04:50:16;;;;;;;9.90;3.90;;;17.50;73.20;;;;;;5014477;28;20479;-72
2022/08/22 04:52:56;;;;;;;9.77;4.00;;;17.50;73.10;;;;;;5032442;28;20489;-72
2022/08/22 04:55:32;;;;;;;9.40;4.10;;;17.50;73.00;;;;;;5032087;28;20292;-72
2022/08/22 04:58:10;;;;;;;6.82;3.28;;;17.50;72.90;;;;;;5013984;28;20492;-72
2022/08/22 05:00:42;;;;;;;6.40;3.10;;;17.50;72.80;;;;;;5014378;28;20054;-72
2022/08/22 05:03:15;;;;;;;7.57;3.40;;;17.50;72.70;;;;;;5032170;28;20149;-72
2022/08/22 05:05:44;;;;;;;7.43;3.93;;;17.50;72.80;;;;;;5031733;28;20101;-73
2022/08/22 05:08:16;;;;;;;8.70;3.95;;;17.40;73.10;;;;;;5013627;28;20273;-72
2022/08/22 05:10:46;;;;;;;5.95;3.50;;;17.40;73.10;;;;;;5031625;28;20060;-72
2022/08/22 05:13:19;;;;;;;8.57;3.78;;;17.40;73.20;;;;;;5014324;28;20069;-73
2022/08/22 05:15:49;;;;;;;7.57;4.20;;;17.40;73.50;;;;;;5013965;28;20046;-72
2022/08/22 05:18:23;;;;;;;8.70;4.20;;;17.40;73.70;;;;;;5031860;28;20050;-73
2022/08/22 05:20:53;;;;;;;9.93;4.55;;;17.40;73.70;;;;;;5031540;28;20339;-72
2022/08/22 05:23:24;;;;;;;9.43;4.47;;;17.40;73.90;;;;;;5013723;28;20120;-72
2022/08/22 05:25:54;;;;;;;10.00;4.30;;;17.40;73.80;;;;;;5032192;28;20056;-72
2022/08/22 05:28:32;;;;;;;10.13;4.38;;;17.40;73.90;;;;;;5014036;28;20526;-72
2022/08/22 05:31:03;;;;;;;7.23;4.30;;;17.40;73.80;;;;;;5031338;28;20088;-72
2022/08/22 05:33:37;;;;;;;8.50;4.00;;;17.40;74.20;;;;;;5013722;28;20357;-72
2022/08/22 05:36:08;;;;;;;6.97;4.22;;;17.40;74.60;;;;;;5031092;28;20130;-72
2022/08/22 05:38:41;;;;;;;11.02;4.30;;;17.40;74.70;;;;;;5013936;28;20905;-72
2022/08/22 05:41:11;;;;;;;8.80;4.30;;;17.40;75.20;;;;;;5013451;28;20128;-72
2022/08/22 05:43:41;;;;;;;7.87;4.13;;;17.40;75.50;;;;;;5029483;28;20144;-72
2022/08/22 05:46:18;;;;;;;9.68;4.40;;;17.40;75.40;;;;;;5011183;28;20345;-72
2022/08/22 05:48:54;;;;;;;8.27;4.40;;;17.40;75.40;;;;;;5011119;28;20116;-73
2022/08/22 05:51:29;;;;;;;8.43;4.55;;;17.40;75.70;;;;;;4993555;28;20057;-72
2022/08/22 05:54:08;;;;;;;8.15;4.18;;;17.40;75.70;;;;;;5011440;28;20133;-72
2022/08/22 05:56:38;;;;;;;8.97;4.33;;;17.40;76.00;;;;;;4991845;28;20058;-72
2022/08/22 05:59:18;;;;;;;11.95;3.97;;;17.40;76.20;;;;;;5010499;28;20281;-72
2022/08/22 06:01:59;;;;;;;10.20;4.38;;;17.40;76.20;;;;;;5011381;28;20050;-73
2022/08/22 06:04:35;;;;;;;9.73;4.07;;;17.40;76.00;;;;;;4993400;28;20133;-72
2022/08/22 06:07:08;;;;;;;8.55;4.30;;;17.50;76.00;;;;;;4993263;28;20054;-72
2022/08/22 06:09:59;;;;;;;9.30;3.80;;;17.50;76.30;;;;;;4976736;28;20070;-72
2022/08/22 06:12:34;;;;;;;7.90;4.00;;;17.50;76.50;;;;;;4993075;28;20333;-73
2022/08/22 06:15:07;;;;;;;8.55;4.18;;;17.50;76.70;;;;;;4993077;28;20125;-72
2022/08/22 06:17:37;;;;;;;8.50;4.40;;;17.50;77.10;;;;;;5007150;28;20085;-73
2022/08/22 06:20:09;;;;;;;10.63;4.28;;;17.50;77.10;;;;;;4989528;28;20130;-73
2022/08/22 06:22:41;;;;;;;8.73;4.47;;;17.50;77.00;;;;;;4989501;28;20054;-72
2022/08/22 06:25:13;;;;;;;7.10;2.47;;;17.50;77.10;;;;;;4987090;28;20247;-72
2022/08/22 06:27:41;;;;;;;6.28;2.85;;;17.50;77.20;;;;;;4999130;28;20097;-72
2022/08/22 06:30:12;;;;;;;6.28;3.50;;;17.50;76.90;;;;;;4997939;28;20046;-74
2022/08/22 06:32:44;;;;;;;7.10;3.53;;;17.50;77.70;;;;;;4981242;28;20101;-74
2022/08/22 06:35:18;;;;;;;7.57;3.30;;;17.50;77.90;;;;;;5001204;28;20078;-73
2022/08/22 06:37:48;;;;;;;5.78;2.90;;;17.50;77.80;;;;;;5007157;28;20274;-72
2022/08/22 06:40:17;;;;;;;7.72;3.50;;;17.60;77.90;;;;;;4981729;28;20059;-73
2022/08/22 06:42:48;;;;;;;7.80;3.30;;;17.60;77.90;;;;;;4983138;28;20051;-73
2022/08/22 06:45:18;;;;;;;5.35;2.95;;;17.60;78.20;;;;;;5001238;28;20133;-73
2022/08/22 06:47:48;;;;;;;8.67;3.47;;;17.70;78.00;;;;;;4999863;28;20144;-73
2022/08/22 06:50:23;;;;;;;8.38;3.92;;;17.70;77.90;;;;;;5001142;28;20282;-76
2022/08/22 06:52:53;;;;;;;9.57;3.78;;;17.80;78.20;;;;;;4983298;28;20053;-74
2022/08/22 06:55:22;;;;;;;8.90;3.80;;;17.80;78.10;;;;;;4982851;28;20614;-74
2022/08/22 06:57:55;;;;;;;6.75;3.35;;;17.80;78.40;;;;;;5000845;28;20058;-74
2022/08/22 07:00:22;;;;;;;7.30;3.30;;;17.80;78.40;;;;;;4998435;28;20047;-75
2022/08/22 07:02:55;;;;;;;7.55;3.00;;;17.90;78.10;;;;;;4983605;28;20270;-75
2022/08/22 07:05:27;;;;;;;8.73;3.58;;;17.90;78.10;;;;;;4982827;28;20073;-74
2022/08/22 07:07:55;;;;;;;6.97;3.05;;;18.00;78.00;;;;;;4984370;28;20057;-74
2022/08/22 07:10:24;;;;;;;10.48;3.60;;;18.00;77.90;;;;;;4999832;28;20158;-74
2022/08/22 07:12:56;;;;;;;8.07;3.30;;;18.00;77.90;;;;;;4999246;28;20109;-73
2022/08/22 07:15:33;;;;;;;6.00;3.10;;;18.10;78.20;;;;;;4983100;28;20290;-73
2022/08/22 07:18:04;;;;;;;6.90;2.83;;;18.10;78.20;;;;;;4999725;28;20051;-73
2022/08/22 07:20:37;;;;;;;9.13;2.97;;;18.10;78.10;;;;;;4981118;28;21709;-71
2022/08/22 07:23:08;;;;;;;6.28;2.72;;;18.20;78.10;;;;;;4999409;28;20528;-74
2022/08/22 07:25:46;;;;;;;6.63;3.13;;;18.20;78.20;;;;;;4964783;28;20054;-73
2022/08/22 07:28:25;;;;;;;7.13;3.08;;;18.20;77.90;;;;;;4981281;28;20435;-73
2022/08/22 07:30:56;;;;;;;9.27;3.30;;;18.30;78.00;;;;;;4981161;28;20106;-73
2022/08/22 07:33:41;;;;;;;10.38;3.33;;;18.30;78.30;;;;;;4981839;28;20109;-73
2022/08/22 07:36:24;;;;;;;7.70;3.05;;;18.30;77.90;;;;;;4996061;28;20844;-72
2022/08/22 07:39:06;;;;;;;11.03;3.10;;;18.40;78.10;;;;;;4996836;28;20154;-74
2022/08/22 07:41:44;;;;;;;9.77;2.95;;;18.40;77.90;;;;;;4984763;28;20389;-74
2022/08/22 07:44:16;;;;;;;8.68;2.92;;;18.40;78.10;;;;;;5001742;28;20100;-73
2022/08/22 07:46:51;;;;;;;6.03;2.95;;;18.50;78.40;;;;;;4965252;28;20094;-74
2022/08/22 07:49:24;;;;;;;7.80;2.80;;;18.50;78.20;;;;;;4982254;28;20042;-72
2022/08/22 07:51:55;;;;;;;8.50;3.00;;;18.60;78.30;;;;;;4964017;28;20047;-72
2022/08/22 07:54:26;;;;;;;10.65;3.30;;;18.60;78.40;;;;;;4975676;28;20244;-72
2022/08/22 07:56:58;;;;;;;7.97;2.95;;;18.60;78.30;;;;;;4975461;28;20059;-71
2022/08/22 07:59:27;;;;;;;6.55;2.65;;;18.60;78.20;;;;;;4975609;28;20591;-72
2022/08/22 08:01:57;;;;;;;9.60;2.72;;;18.70;78.20;;;;;;4974365;28;20994;-72
2022/08/22 08:04:29;;;;;;;8.43;3.03;;;18.70;78.00;;;;;;4974123;28;20046;-72
2022/08/22 08:07:00;;;;;;;7.88;3.25;;;18.70;77.90;;;;;;4974278;28;21146;-71
2022/08/22 08:09:31;;;;;;;6.45;2.75;;;18.80;77.80;;;;;;4991326;28;20054;-72
2022/08/22 08:11:59;;;;;;;7.30;2.50;;;18.80;77.70;;;;;;4974257;28;20046;-71
2022/08/22 08:14:27;;;;;;;9.20;3.30;;;18.80;77.70;;;;;;4981672;28;20137;-71
2022/08/22 08:16:57;;;;;;;11.40;3.20;;;18.90;77.80;;;;;;4995498;28;20065;-71
2022/08/22 08:19:24;;;;;;;6.20;2.55;;;18.90;77.60;;;;;;4992097;28;20745;-71
2022/08/22 08:21:54;;;;;;;9.45;2.70;;;18.90;77.70;;;;;;4994047;28;21014;-71
2022/08/22 08:24:25;;;;;;;8.20;2.78;;;18.90;77.60;;;;;;5002087;28;20054;-72
2022/08/22 08:29:41;;;;;;;6.87;2.67;;;19.00;77.50;;;;;;4999055;28;20039;-72
2022/08/22 08:32:11;;;;;;;9.55;2.75;;;19.00;77.40;;;;;;4991848;28;20286;-71
2022/08/22 08:34:39;;;;;;;6.00;2.58;;;19.10;77.30;;;;;;4994835;28;20050;-71
2022/08/22 08:37:14;;;;;;;6.63;2.70;;;19.10;77.10;;;;;;4994882;28;20054;-71
2022/08/22 08:39:49;;;;;;;10.00;2.90;;;19.10;77.10;;;;;;4994737;28;20042;-71
2022/08/22 08:45:56;;;;;;;7.68;2.85;;;19.20;77.10;;;;;;5006683;28;20265;-72
2022/08/22 08:48:57;;;;;;;9.25;2.90;;;19.20;77.10;;;;;;5012657;28;20940;-72
2022/08/22 08:51:53;;;;;;;7.82;3.08;;;19.30;77.10;;;;;;4994987;28;20053;-72
2022/08/22 08:54:42;;;;;;;6.60;2.63;;;19.30;76.90;;;;;;4994330;28;20051;-72
2022/08/22 08:57:18;;;;;;;9.30;3.03;;;19.30;77.10;;;;;;5012725;28;20054;-71
2022/08/22 08:59:57;;;;;;;9.80;3.20;;;19.40;77.10;;;;;;5012342;28;20258;-71
2022/08/22 09:02:45;;;;;;;9.25;2.92;;;19.40;77.30;;;;;;5011202;28;20472;-73
2022/08/22 09:05:49;;;;;;;11.02;3.15;;;19.50;77.30;;;;;;5006135;28;20061;-72
2022/08/22 09:08:47;;;;;;;7.22;2.85;;;19.50;77.00;;;;;;5002857;28;22017;-72
2022/08/22 09:11:46;;;;;;;9.60;2.50;;;19.50;76.70;;;;;;5017290;28;20131;-71
2022/08/22 09:14:26;;;;;;;9.32;2.75;;;19.60;76.80;;;;;;5016868;28;21087;-72
2022/08/22 09:17:18;;;;;;;9.90;2.80;;;19.70;76.80;;;;;;5000155;28;20061;-72
2022/08/22 09:20:15;;;;;;;8.00;2.30;;;19.70;76.60;;;;;;4983109;28;20047;-72
2022/08/22 09:23:20;;;;;;;8.75;2.60;;;19.80;76.20;;;;;;4988646;28;20047;-72
2022/08/22 09:25:54;;;;;;;8.90;2.73;;;19.90;76.00;;;;;;5000753;28;20545;-72
2022/08/22 09:28:31;;;;;;;6.40;2.63;;;19.90;75.70;;;;;;4993739;28;20310;-72
2022/08/22 09:31:16;;;;;;;8.45;2.60;;;19.90;75.60;;;;;;4990846;28;20137;-72
2022/08/22 09:33:53;;;;;;;8.90;2.45;;;20.00;75.40;;;;;;4990711;28;20049;-72
2022/08/22 09:36:25;;;;;;;7.72;2.60;;;20.00;75.30;;;;;;5000713;28;20050;-72
2022/08/22 09:38:58;;;;;;;12.00;3.17;;;20.00;75.30;;;;;;4991516;28;20051;-74
2022/08/22 09:41:37;;;;;;;8.48;2.80;;;20.10;75.30;;;;;;5000285;28;20384;-72
2022/08/22 09:44:15;;;;;;;8.15;2.50;;;20.10;75.30;;;;;;5002598;28;20401;-72
2022/08/22 09:46:53;;;;;;;9.25;2.97;;;20.10;75.10;;;;;;4991056;28;20050;-73
2022/08/22 09:49:25;;;;;;;7.38;2.67;;;20.20;74.90;;;;;;5010789;28;20553;-72
2022/08/22 09:52:04;;;;;;;6.07;2.47;;;20.30;74.80;;;;;;4991932;28;21059;-73
2022/08/22 09:54:36;;;;;;;7.68;2.45;;;20.30;74.70;;;;;;4989622;28;20259;-72
2022/08/22 09:57:19;;;;;;;8.32;2.63;;;20.30;74.60;;;;;;5000256;28;20078;-72
2022/08/22 10:00:13;;;;;;;9.27;2.60;;;20.40;74.80;;;;;;4999953;28;20134;-72
2022/08/22 10:02:49;;;;;;;7.18;2.20;;;20.50;74.50;;;;;;4986643;28;20066;-72
2022/08/22 10:05:23;;;;;;;10.77;2.27;;;20.50;74.40;;;;;;5000298;28;20047;-72
2022/08/22 10:08:02;;;;;;;5.53;2.35;;;20.50;74.40;;;;;;4982113;28;20681;-72
2022/08/22 10:10:53;;;;;;;7.53;2.45;;;20.60;74.10;;;;;;4988374;28;20614;-72
2022/08/22 10:13:32;;;;;;;8.23;2.30;;;20.60;73.70;;;;;;4999871;28;20084;-71
2022/08/22 10:16:15;;;;;;;8.95;2.17;;;20.70;73.50;;;;;;5006399;28;20047;-72
2022/08/22 10:18:51;;;;;;;9.17;2.53;;;20.70;73.40;;;;;;5006876;28;20082;-72
2022/08/22 10:21:28;;;;;;;7.00;2.35;;;20.70;73.20;;;;;;5001777;28;20270;-72
2022/08/22 10:24:00;;;;;;;6.82;2.30;;;20.80;73.30;;;;;;5007540;28;20129;-72
2022/08/22 10:26:33;;;;;;;7.50;2.00;;;20.80;73.20;;;;;;5000004;28;20493;-72
2022/08/22 10:29:12;;;;;;;8.80;2.50;;;20.90;73.10;;;;;;5000265;28;20109;-72
2022/08/22 10:31:46;;;;;;;11.47;2.70;;;20.90;72.80;;;;;;4982746;28;20873;-72
2022/08/22 10:34:20;;;;;;;6.88;2.40;;;20.90;72.30;;;;;;4990683;28;20259;-72
2022/08/22 10:36:59;;;;;;;8.38;2.30;;;21.00;71.90;;;;;;4990659;28;20050;-72
2022/08/22 10:39:36;;;;;;;6.38;2.20;;;21.00;71.90;;;;;;4989923;28;20086;-72
2022/08/22 10:42:25;;;;;;;10.32;2.50;;;21.00;71.60;;;;;;4991629;28;20090;-71
2022/08/22 10:45:07;;;;;;;11.80;2.70;;;21.10;71.40;;;;;;4989871;28;20497;-71
2022/08/22 10:47:39;;;;;;;7.50;2.35;;;21.10;71.40;;;;;;4982261;28;20295;-71
2022/08/22 10:50:16;;;;;;;8.48;2.45;;;21.10;71.20;;;;;;5001847;28;20142;-71
2022/08/22 10:52:48;;;;;;;6.25;2.22;;;21.10;71.00;;;;;;4989518;28;20046;-72
2022/08/22 10:55:21;;;;;;;6.68;2.20;;;21.20;71.00;;;;;;4987730;28;20078;-71
2022/08/22 10:58:01;;;;;;;7.57;2.50;;;21.30;71.20;;;;;;4989854;28;20153;-71
2022/08/22 11:00:43;;;;;;;8.45;2.50;;;21.30;71.30;;;;;;4983073;28;20283;-72
2022/08/22 11:03:15;;;;;;;8.35;2.60;;;21.40;71.40;;;;;;4981946;28;20086;-72
2022/08/22 11:05:45;;;;;;;6.95;2.83;;;21.50;71.30;;;;;;4981265;28;20512;-71
2022/08/22 11:08:46;;;;;;;10.60;2.53;;;21.50;71.20;;;;;;4983933;28;20508;-71
2022/08/22 11:11:20;;;;;;;6.43;2.30;;;21.70;70.70;;;;;;4993128;28;20061;-72
2022/08/22 11:14:02;;;;;;;7.85;2.33;;;21.70;71.00;;;;;;4962191;28;20270;-71
2022/08/22 11:16:50;;;;;;;7.75;2.80;;;21.90;70.50;;;;;;4990568;28;20059;-71
2022/08/22 11:19:32;;;;;;;5.32;2.10;;;22.00;69.70;;;;;;4992524;28;20109;-72
2022/08/22 11:22:10;;;;;;;9.38;2.20;;;22.10;69.10;;;;;;4994760;28;20086;-72
2022/08/22 11:25:03;;;;;;;7.00;2.30;;;22.20;68.50;;;;;;4994106;28;20054;-72
2022/08/22 11:27:39;;;;;;;7.70;2.05;;;22.30;68.00;;;;;;4993922;28;20338;-72
2022/08/22 11:30:10;;;;;;;8.00;2.40;;;22.50;67.30;;;;;;4993941;28;20572;-71
2022/08/22 11:32:43;;;;;;;7.10;2.10;;;22.50;66.70;;;;;;4994138;28;20142;-71
2022/08/22 11:35:19;;;;;;;7.32;2.33;;;22.50;66.50;;;;;;4994186;28;20509;-71
2022/08/22 11:37:52;;;;;;;6.83;1.70;;;22.60;65.70;;;;;;4993872;28;20138;-71
2022/08/22 11:40:35;;;;;;;9.23;2.30;;;22.70;65.70;;;;;;4993429;28;20255;-72
2022/08/22 11:43:25;;;;;;;7.40;2.30;;;22.70;65.00;;;;;;4994118;28;20061;-72
2022/08/22 11:45:56;;;;;;;9.23;2.38;;;22.80;64.70;;;;;;4976226;28;20528;-72
2022/08/22 11:48:28;;;;;;;6.80;1.90;;;22.80;64.90;;;;;;4993923;28;20055;-72
2022/08/22 11:51:03;;;;;;;9.07;2.47;;;22.90;64.80;;;;;;4993711;28;20054;-72
2022/08/22 11:53:38;;;;;;;8.85;2.15;;;22.90;64.80;;;;;;4993588;28;20350;-72
2022/08/22 11:56:18;;;;;;;6.35;2.10;;;23.00;64.40;;;;;;4976379;28;20138;-71
2022/08/22 11:58:55;;;;;;;6.00;2.30;;;23.00;64.20;;;;;;4997045;28;20097;-72
2022/08/22 12:01:28;;;;;;;7.72;2.00;;;23.10;64.60;;;;;;4994002;28;20051;-71
2022/08/22 12:04:14;;;;;;;7.03;2.03;;;23.20;64.60;;;;;;4976231;28;20061;-72
2022/08/22 12:06:50;;;;;;;7.63;2.10;;;23.30;64.50;;;;;;4975719;28;20768;-71
2022/08/22 12:09:30;;;;;;;6.63;2.30;;;23.30;64.40;;;;;;4998516;28;20050;-72
2022/08/22 12:12:15;;;;;;;10.75;2.13;;;23.40;64.20;;;;;;4993557;28;20046;-72
2022/08/22 12:14:47;;;;;;;6.47;2.40;;;23.50;64.20;;;;;;5024876;28;20058;-72
2022/08/22 12:17:33;;;;;;;8.63;2.33;;;23.60;64.30;;;;;;4990556;28;20453;-72
2022/08/22 12:20:14;;;;;;;5.15;2.17;;;23.70;64.50;;;;;;5023697;28;21281;-72
2022/08/22 12:23:01;;;;;;;9.52;2.33;;;23.80;63.90;;;;;;4991033;28;20567;-71
2022/08/22 12:25:51;;;;;;;9.13;2.35;;;23.90;63.20;;;;;;4990799;28;20074;-72
2022/08/22 12:28:29;;;;;;;11.10;2.42;;;24.00;63.10;;;;;;4988020;28;20102;-71
2022/08/22 12:31:07;;;;;;;6.17;2.10;;;24.10;63.00;;;;;;5000353;28;20141;-73
2022/08/22 12:33:58;;;;;;;7.40;2.00;;;24.20;62.70;;;;;;5009526;28;20358;-72
2022/08/22 12:36:57;;;;;;;7.88;2.22;;;24.40;62.20;;;;;;4991158;28;20150;-72
2022/08/22 12:39:54;;;;;;;8.48;2.38;;;24.40;62.10;;;;;;4983351;28;20495;-72
2022/08/22 12:42:48;;;;;;;7.97;2.53;;;24.50;61.90;;;;;;5008708;28;20137;-72
2022/08/22 12:45:33;;;;;;;9.00;2.77;;;24.60;61.40;;;;;;4998900;28;20062;-71
2022/08/22 12:48:10;;;;;;;6.63;2.28;;;24.70;61.30;;;;;;4973041;28;20286;-72
2022/08/22 12:50:47;;;;;;;8.18;2.40;;;24.80;61.00;;;;;;4959038;28;20039;-72
2022/08/22 12:53:52;;;;;;;9.48;2.22;;;24.90;60.90;;;;;;4977861;28;20309;-72
2022/08/22 12:56:29;;;;;;;6.10;2.15;;;25.00;61.50;;;;;;4995460;28;20061;-72
2022/08/22 12:59:21;;;;;;;5.63;2.10;;;25.00;60.50;;;;;;5002880;28;20051;-72
2022/08/22 13:01:51;;;;;;;7.05;2.40;;;25.10;60.20;;;;;;4994745;28;20286;-71
2022/08/22 13:04:22;;;;;;;6.63;2.13;;;25.20;59.40;;;;;;4992561;28;20053;-71
2022/08/22 13:07:01;;;;;;;6.82;2.20;;;25.30;59.00;;;;;;4998924;28;20493;-72
2022/08/22 13:09:31;;;;;;;8.80;2.50;;;25.30;59.10;;;;;;4985068;28;20133;-72
2022/08/22 13:12:04;;;;;;;6.73;2.60;;;25.40;58.70;;;;;;5006066;28;20808;-71
2022/08/22 13:14:34;;;;;;;7.10;2.30;;;25.40;58.50;;;;;;5005023;28;20332;-72
2022/08/22 13:17:05;;;;;;;7.55;2.30;;;25.50;58.80;;;;;;5006251;28;20050;-72
2022/08/22 13:19:43;;;;;;;5.85;2.25;;;25.60;58.20;;;;;;5004962;28;20066;-72
2022/08/22 13:22:17;;;;;;;11.70;2.60;;;25.60;57.50;;;;;;4999234;28;20058;-72
2022/08/22 13:24:48;;;;;;;7.67;2.53;;;25.60;57.30;;;;;;5008254;28;20057;-72
2022/08/22 13:27:20;;;;;;;7.40;2.20;;;25.60;57.70;;;;;;5000965;28;20285;-72
2022/08/22 13:29:53;;;;;;;7.00;2.40;;;25.70;57.40;;;;;;5002166;28;20055;-72
2022/08/22 13:32:27;;;;;;;9.48;2.47;;;25.80;57.70;;;;;;4985482;28;20156;-74
2022/08/22 13:34:57;;;;;;;8.85;2.83;;;25.80;57.30;;;;;;4997931;28;20908;-72
2022/08/22 13:37:31;;;;;;;11.40;2.90;;;25.80;56.70;;;;;;4965112;28;20137;-72
2022/08/22 13:40:04;;;;;;;6.43;2.20;;;25.80;56.50;;;;;;5006765;28;20248;-70
2022/08/22 13:42:34;;;;;;;7.43;2.30;;;25.90;56.60;;;;;;5000967;28;20054;-73
2022/08/22 13:45:10;;;;;;;7.60;2.63;;;25.90;56.50;;;;;;4986050;28;20190;-72
2022/08/22 13:47:48;;;;;;;7.35;2.67;;;26.00;56.50;;;;;;5002844;28;20057;-72
2022/08/22 13:50:19;;;;;;;7.37;2.23;;;26.00;56.90;;;;;;5001880;28;20125;-73
2022/08/22 13:52:50;;;;;;;7.07;2.65;;;26.00;56.90;;;;;;4971953;28;20294;-73